createdAt,value
2023-03-31T00:02:13.860Z,12.18
2023-03-31T00:05:18.367Z,11.99
2023-03-31T00:08:21.499Z,12.02
2023-03-31T00:11:23.777Z,12.02
2023-03-31T00:14:26.577Z,11.98
2023-03-31T00:17:33.306Z,11.98
2023-03-31T00:20:38.263Z,12.12
2023-03-31T00:23:43.783Z,11.97
2023-03-31T00:26:46.149Z,12.11
2023-03-31T00:29:50.812Z,12.15
2023-03-31T00:32:53.373Z,12.08
2023-03-31T00:35:56.445Z,12.10
2023-03-31T00:39:09.558Z,12.08
2023-03-31T00:42:15.517Z,11.95
2023-03-31T00:45:24.253Z,12.02
2023-03-31T00:48:27.740Z,12.00
2023-03-31T00:51:32.648Z,11.98
2023-03-31T00:54:36.687Z,11.97
2023-03-31T00:57:39.897Z,11.95
2023-03-31T01:00:42.794Z,11.90
2023-03-31T01:03:46.937Z,11.86
2023-03-31T01:07:00.940Z,11.94
2023-03-31T01:10:05.296Z,11.98
2023-03-31T01:13:11.935Z,11.83
2023-03-31T01:16:14.385Z,11.78
2023-03-31T01:19:29.178Z,11.53
2023-03-31T01:23:07.224Z,11.38
2023-03-31T01:26:43.416Z,11.34
2023-03-31T01:30:04.618Z,11.37
2023-03-31T01:33:17.457Z,11.40
2023-03-31T01:36:29.283Z,11.45
2023-03-31T01:39:43.744Z,11.47
2023-03-31T01:43:02.030Z,11.39
2023-03-31T01:46:33.842Z,11.28
2023-03-31T01:49:43.643Z,11.26
2023-03-31T01:52:56.859Z,11.34
2023-03-31T01:56:12.963Z,11.36
2023-03-31T01:59:29.595Z,11.31
2023-03-31T02:02:37.780Z,11.14
2023-03-31T02:05:47.988Z,11.29
2023-03-31T02:08:56.302Z,11.27
2023-03-31T02:12:00.740Z,11.29
2023-03-31T02:15:06.312Z,11.37
2023-03-31T02:18:11.701Z,11.33
2023-03-31T02:21:16.576Z,11.32
2023-03-31T02:24:20.899Z,11.17
2023-03-31T02:27:43.232Z,11.07
2023-03-31T02:30:45.710Z,11.07
2023-03-31T02:33:48.988Z,11.03
2023-03-31T02:36:51.370Z,10.98
2023-03-31T02:39:56.003Z,10.89
2023-03-31T02:42:58.408Z,10.99
2023-03-31T02:46:00.799Z,10.93
2023-03-31T02:49:07.452Z,10.90
2023-03-31T02:52:25.455Z,11.00
2023-03-31T02:55:52.496Z,11.00
2023-03-31T02:59:16.983Z,10.93
2023-03-31T03:02:27.205Z,10.90
2023-03-31T03:05:35.032Z,10.85
2023-03-31T03:09:09.043Z,10.85
2023-03-31T03:12:16.887Z,10.94
2023-03-31T03:15:32.008Z,10.99
2023-03-31T03:18:34.727Z,11.07
2023-03-31T03:21:37.122Z,10.99
2023-03-31T03:24:40.175Z,10.92
2023-03-31T03:27:42.624Z,11.01
2023-03-31T03:30:45.079Z,11.08
2023-03-31T03:33:47.510Z,11.16
2023-03-31T03:36:49.795Z,11.05
2023-03-31T03:39:52.148Z,10.99
2023-03-31T03:42:54.897Z,10.89
2023-03-31T03:45:57.774Z,10.94
2023-03-31T03:49:00.291Z,10.78
2023-03-31T03:52:03.118Z,10.90
2023-03-31T03:55:07.097Z,10.83
2023-03-31T03:58:09.604Z,11.00
2023-03-31T04:01:11.908Z,11.09
2023-03-31T04:04:14.564Z,11.13
2023-03-31T04:07:17.594Z,11.23
2023-03-31T04:10:19.888Z,11.20
2023-03-31T04:13:22.210Z,11.34
2023-03-31T04:16:25.611Z,11.34
2023-03-31T04:19:27.990Z,11.26
2023-03-31T04:22:34.980Z,11.13
2023-03-31T04:25:38.716Z,11.07
2023-03-31T04:28:42.972Z,10.99
2023-03-31T04:31:45.572Z,10.87
2023-03-31T04:34:50.773Z,10.81
2023-03-31T04:37:59.206Z,10.78
2023-03-31T04:41:01.817Z,10.65
2023-03-31T04:44:04.385Z,10.56
2023-03-31T04:47:07.162Z,10.59
2023-03-31T04:50:16.172Z,10.75
2023-03-31T04:53:19.483Z,10.83
2023-03-31T04:56:22.967Z,10.87
2023-03-31T04:59:25.481Z,10.91
2023-03-31T05:02:27.805Z,10.90
2023-03-31T05:05:30.540Z,11.00
2023-03-31T05:08:34.181Z,11.19
2023-03-31T05:11:39.510Z,11.16
2023-03-31T05:14:41.883Z,11.43
2023-03-31T05:17:45.009Z,11.47
2023-03-31T05:20:47.377Z,11.76
2023-03-31T05:23:50.278Z,11.83
2023-03-31T05:26:53.120Z,11.79
2023-03-31T05:29:55.713Z,11.98
2023-03-31T05:32:58.196Z,11.89
2023-03-31T05:36:00.946Z,12.00
2023-03-31T05:39:05.586Z,12.02
2023-03-31T05:42:07.993Z,12.07
2023-03-31T05:45:10.631Z,11.93
2023-03-31T05:48:13.191Z,11.91
2023-03-31T05:51:15.553Z,12.08
2023-03-31T05:54:17.842Z,12.23
2023-03-31T05:57:20.459Z,12.31
2023-03-31T06:00:23.032Z,12.45
2023-03-31T06:03:25.730Z,12.78
2023-03-31T06:06:28.095Z,12.99
2023-03-31T06:09:31.816Z,13.16
2023-03-31T06:12:34.666Z,13.55
2023-03-31T06:15:36.996Z,13.97
2023-03-31T06:18:40.684Z,14.59
2023-03-31T06:21:50.495Z,14.72
2023-03-31T06:24:54.212Z,14.95
2023-03-31T06:27:56.523Z,15.35
2023-03-31T06:31:10.289Z,15.65
2023-03-31T06:34:13.481Z,15.36
2023-03-31T06:37:15.939Z,15.47
2023-03-31T06:40:18.752Z,15.46
2023-03-31T06:43:21.240Z,15.98
2023-03-31T06:46:24.779Z,16.25
2023-03-31T06:50:52.775Z,16.90
2023-03-31T06:53:56.284Z,16.65
2023-03-31T06:56:59.213Z,16.82
2023-03-31T07:00:01.622Z,16.85
2023-03-31T07:03:04.828Z,17.29
2023-03-31T07:06:07.503Z,17.30
2023-03-31T07:09:09.808Z,17.24
2023-03-31T07:12:12.199Z,17.76
2023-03-31T07:15:14.760Z,17.84
2023-03-31T07:18:19.207Z,17.69
2023-03-31T07:21:21.656Z,17.43
2023-03-31T07:24:24.526Z,18.07
2023-03-31T07:27:28.433Z,18.42
2023-03-31T07:30:30.755Z,18.07
2023-03-31T07:33:33.089Z,18.14
2023-03-31T07:36:35.884Z,18.78
2023-03-31T07:39:41.319Z,18.63
2023-03-31T07:42:46.494Z,18.70
2023-03-31T07:45:50.436Z,19.21
2023-03-31T07:48:54.080Z,19.18
2023-03-31T07:51:57.182Z,19.29
2023-03-31T07:54:59.572Z,19.40
2023-03-31T07:58:02.212Z,19.36
2023-03-31T08:01:04.991Z,19.59
2023-03-31T08:04:08.980Z,19.98
2023-03-31T08:07:14.458Z,20.46
2023-03-31T08:10:20.506Z,20.49
2023-03-31T08:13:25.390Z,20.39
2023-03-31T08:16:27.936Z,20.60
2023-03-31T08:19:30.497Z,20.87
2023-03-31T08:22:32.798Z,20.83
2023-03-31T08:25:35.511Z,21.02
2023-03-31T08:28:37.976Z,21.16
2023-03-31T08:31:40.537Z,21.33
2023-03-31T08:34:43.097Z,21.33
2023-03-31T08:37:45.398Z,21.11
2023-03-31T08:40:47.689Z,20.99
2023-03-31T08:43:50.387Z,20.94
2023-03-31T08:46:55.316Z,21.27
2023-03-31T08:50:01.102Z,20.88
2023-03-31T08:53:07.050Z,21.32
2023-03-31T08:56:16.728Z,21.39
2023-03-31T09:01:08.750Z,21.57
2023-03-31T09:04:19.752Z,21.65
2023-03-31T09:07:39.263Z,21.56
2023-03-31T09:10:53.510Z,21.72
2023-03-31T09:14:18.553Z,21.66
2023-03-31T09:17:25.993Z,21.69
2023-03-31T09:20:37.568Z,21.53
2023-03-31T09:44:49.998Z,21.24
2023-03-31T09:48:09.316Z,21.78
2023-03-31T09:51:30.790Z,21.78
2023-03-31T09:54:45.834Z,21.59
2023-03-31T09:57:48.184Z,21.38
2023-03-31T10:01:03.111Z,21.33
2023-03-31T10:04:08.789Z,20.98
2023-03-31T10:07:11.893Z,20.41
2023-03-31T10:10:44.386Z,19.92
2023-03-31T10:13:49.975Z,20.41
2023-03-31T10:16:56.824Z,20.20
2023-03-31T10:20:09.230Z,20.41
2023-03-31T10:23:16.874Z,20.45
2023-03-31T10:26:22.604Z,20.30
2023-03-31T10:29:34.414Z,20.14
2023-03-31T10:32:43.825Z,20.31
2023-03-31T10:35:49.759Z,20.83
2023-03-31T10:38:57.379Z,20.76
2023-03-31T10:41:59.889Z,20.65
2023-03-31T10:45:36.632Z,20.04
2023-03-31T10:48:42.402Z,19.56
2023-03-31T10:51:56.522Z,19.24
2023-03-31T10:55:01.699Z,19.48
2023-03-31T10:58:25.066Z,20.04
2023-03-31T11:01:49.510Z,20.67
2023-03-31T11:05:22.537Z,20.98
2023-03-31T11:08:28.824Z,20.97
2023-03-31T11:11:49.732Z,20.85
2023-03-31T11:15:04.242Z,20.91
2023-03-31T11:18:17.007Z,20.64
2023-03-31T11:21:28.446Z,20.63
2023-03-31T11:24:44.218Z,20.00
2023-03-31T11:28:18.999Z,20.11
2023-03-31T11:31:34.222Z,20.38
2023-03-31T11:34:55.172Z,20.20
2023-03-31T11:38:24.014Z,20.41
2023-03-31T11:41:38.788Z,20.44
2023-03-31T11:44:53.590Z,20.23
2023-03-31T11:48:05.495Z,19.87
2023-03-31T11:51:16.839Z,19.42
2023-03-31T11:54:37.174Z,19.43
2023-03-31T11:57:45.586Z,19.39
2023-03-31T12:01:28.700Z,20.35
2023-03-31T12:04:52.301Z,20.57
2023-03-31T12:08:03.770Z,20.07
2023-03-31T12:11:20.232Z,19.94
2023-03-31T12:14:46.207Z,19.64
2023-03-31T12:18:00.016Z,19.41
2023-03-31T12:21:03.876Z,19.16
2023-03-31T12:24:08.403Z,19.55
2023-03-31T12:27:16.882Z,19.79
2023-03-31T12:30:34.626Z,19.93
2023-03-31T12:33:46.491Z,20.18
2023-03-31T12:37:16.803Z,20.30
2023-03-31T12:40:41.644Z,19.99
2023-03-31T12:44:15.188Z,19.95
2023-03-31T12:47:44.719Z,19.90
2023-03-31T12:51:02.265Z,20.07
2023-03-31T12:54:34.545Z,19.45
2023-03-31T12:57:37.389Z,19.27
2023-03-31T13:01:11.978Z,19.31
2023-03-31T13:04:21.515Z,19.33
2023-03-31T13:07:29.034Z,19.38
2023-03-31T13:10:33.809Z,19.63
2023-03-31T13:17:22.396Z,20.00
2023-03-31T13:20:30.979Z,19.79
2023-03-31T13:23:38.553Z,19.45
2023-03-31T13:26:46.880Z,19.61
2023-03-31T13:29:53.232Z,19.68
2023-03-31T13:33:22.005Z,19.79
2023-03-31T13:36:51.090Z,19.67
2023-03-31T13:40:13.580Z,19.48
2023-03-31T13:43:56.393Z,19.29
2023-03-31T13:47:31.522Z,18.91
2023-03-31T13:50:41.902Z,18.70
2023-03-31T13:53:54.790Z,19.01
2023-03-31T13:57:51.569Z,18.96
2023-03-31T14:01:17.229Z,18.93
2023-03-31T14:04:31.744Z,18.88
2023-03-31T14:07:46.509Z,18.73
2023-03-31T14:10:48.836Z,18.63
2023-03-31T14:14:13.070Z,18.87
2023-03-31T14:17:16.381Z,18.86
2023-03-31T14:20:42.916Z,18.80
2023-03-31T14:23:53.975Z,18.67
2023-03-31T14:27:12.112Z,18.75
2023-03-31T14:30:41.157Z,18.77
2023-03-31T14:34:06.904Z,18.92
2023-03-31T14:37:17.982Z,18.84
2023-03-31T14:40:20.635Z,18.92
2023-03-31T14:43:46.507Z,18.63
2023-03-31T14:46:48.856Z,18.68
2023-03-31T14:50:13.493Z,18.72
2023-03-31T14:53:23.700Z,18.81
2023-03-31T14:56:37.940Z,18.84
2023-03-31T14:59:41.188Z,18.80
2023-03-31T15:02:44.766Z,18.79
2023-03-31T15:05:49.159Z,18.58
2023-03-31T15:08:56.800Z,18.43
2023-03-31T15:12:02.025Z,18.26
2023-03-31T15:15:06.840Z,18.23
2023-03-31T15:18:12.964Z,18.26
2023-03-31T15:21:25.547Z,18.07
2023-03-31T15:24:31.541Z,18.25
2023-03-31T15:31:09.690Z,18.04
2023-03-31T15:34:15.851Z,17.99
2023-03-31T15:37:23.803Z,18.00
2023-03-31T15:40:33.091Z,17.97
2023-03-31T15:43:42.361Z,17.80
2023-03-31T15:46:49.085Z,17.73
2023-03-31T15:49:58.270Z,17.67
2023-03-31T15:53:02.270Z,17.60
2023-03-31T15:56:05.291Z,17.57
2023-03-31T15:59:25.163Z,17.59
2023-03-31T16:02:43.363Z,17.40
2023-03-31T16:05:56.043Z,17.38
2023-03-31T16:09:04.335Z,17.27
2023-03-31T16:12:18.500Z,17.28
2023-03-31T16:15:28.602Z,17.08
2023-03-31T16:18:36.056Z,17.11
2023-03-31T16:21:41.961Z,16.97
2023-03-31T16:24:44.727Z,16.87
2023-03-31T16:27:50.856Z,16.69
2023-03-31T16:30:54.651Z,16.67
2023-03-31T16:33:57.768Z,16.59
2023-03-31T16:37:00.149Z,16.54
2023-03-31T16:40:02.838Z,16.40
2023-03-31T16:43:11.366Z,16.29
2023-03-31T16:46:13.819Z,16.01
2023-03-31T16:49:16.226Z,16.11
2023-03-31T16:52:18.544Z,16.04
2023-03-31T16:55:20.955Z,15.92
2023-03-31T16:58:24.372Z,16.05
2023-03-31T17:01:27.140Z,16.02
2023-03-31T17:04:29.773Z,15.94
2023-03-31T17:07:33.172Z,15.94
2023-03-31T17:10:35.847Z,15.83
2023-03-31T17:13:39.549Z,15.86
2023-03-31T17:16:48.172Z,15.66
2023-03-31T17:19:51.621Z,15.60
2023-03-31T17:22:54.284Z,15.63
2023-03-31T17:25:57.165Z,15.61
2023-03-31T17:29:00.722Z,15.59
2023-03-31T17:32:03.059Z,15.57
2023-03-31T17:35:07.062Z,15.66
2023-03-31T17:38:12.679Z,15.62
2023-03-31T17:41:15.520Z,15.47
2023-03-31T17:44:17.927Z,15.43
2023-03-31T17:47:23.863Z,15.41
2023-03-31T17:50:27.327Z,15.27
2023-03-31T17:53:30.308Z,15.28
2023-03-31T17:56:32.629Z,15.30
2023-03-31T17:59:37.565Z,15.23
2023-03-31T18:02:41.322Z,15.29
2023-03-31T18:05:44.647Z,15.23
2023-03-31T18:08:47.182Z,15.17
2023-03-31T18:11:49.570Z,15.20
2023-03-31T18:14:54.510Z,15.18
2023-03-31T18:17:56.835Z,15.13
2023-03-31T18:21:03.778Z,15.01
2023-03-31T18:24:06.513Z,15.11
2023-03-31T18:27:08.913Z,15.06
2023-03-31T18:30:11.974Z,15.10
2023-03-31T18:33:14.515Z,15.07
2023-03-31T18:36:18.844Z,15.08
2023-03-31T18:39:21.422Z,15.02
2023-03-31T18:42:25.786Z,15.01
2023-03-31T18:45:30.810Z,14.93
2023-03-31T18:48:34.907Z,14.90
2023-03-31T18:51:37.238Z,14.77
2023-03-31T18:54:39.653Z,14.90
2023-03-31T18:57:42.227Z,14.85
2023-03-31T19:00:45.387Z,14.80
2023-03-31T19:03:47.908Z,14.87
2023-03-31T19:06:52.427Z,14.82
2023-03-31T19:09:54.688Z,14.77
2023-03-31T19:12:57.215Z,14.52
2023-03-31T19:15:59.522Z,14.58
2023-03-31T19:19:03.900Z,14.44
2023-03-31T19:22:06.189Z,14.42
2023-03-31T19:25:09.137Z,14.55
2023-03-31T19:28:16.424Z,14.44
2023-03-31T19:31:20.656Z,14.65
2023-03-31T19:34:23.014Z,14.54
2023-03-31T19:37:25.836Z,14.54
2023-03-31T19:40:28.138Z,14.47
2023-03-31T19:43:30.971Z,14.48
2023-03-31T19:46:34.713Z,14.46
2023-03-31T19:49:37.181Z,14.49
2023-03-31T19:52:39.454Z,14.39
2023-03-31T19:55:42.554Z,14.23
2023-03-31T19:58:45.483Z,14.09
2023-03-31T20:01:47.919Z,14.15
2023-03-31T20:04:50.285Z,13.95
2023-03-31T20:07:52.611Z,13.90
2023-03-31T20:10:59.927Z,14.01
2023-03-31T20:14:03.313Z,13.91
2023-03-31T20:17:08.055Z,13.78
2023-03-31T20:20:10.752Z,13.69
2023-03-31T20:23:13.067Z,13.77
2023-03-31T20:26:20.855Z,13.59
2023-03-31T20:29:24.225Z,13.52
2023-03-31T20:32:26.471Z,13.58
2023-03-31T20:35:29.365Z,13.53
2023-03-31T20:38:33.051Z,13.51
2023-03-31T20:41:37.392Z,13.53
2023-03-31T20:44:39.774Z,13.31
2023-03-31T20:47:42.291Z,13.51
2023-03-31T20:50:44.871Z,13.59
2023-03-31T20:53:49.319Z,13.48
2023-03-31T20:56:51.913Z,13.44
2023-03-31T20:59:54.836Z,13.45
2023-03-31T21:02:57.442Z,13.48
2023-03-31T21:06:05.018Z,13.35
2023-03-31T21:09:08.036Z,13.25
2023-03-31T21:12:10.346Z,13.00
2023-03-31T21:15:13.217Z,12.96
2023-03-31T21:18:16.813Z,12.90
2023-03-31T21:21:19.585Z,12.91
2023-03-31T21:24:22.552Z,13.02
2023-03-31T21:27:24.825Z,12.95
2023-03-31T21:30:27.156Z,12.98
2023-03-31T21:33:30.839Z,13.13
2023-03-31T21:36:33.148Z,13.18
2023-03-31T21:39:35.482Z,13.13
2023-03-31T21:42:38.097Z,13.06
2023-03-31T21:45:40.882Z,12.85
2023-03-31T21:48:43.747Z,12.76
2023-03-31T21:51:46.296Z,12.75
2023-03-31T21:54:48.656Z,12.91
2023-03-31T21:57:50.994Z,12.77
2023-03-31T22:00:55.483Z,12.83
2023-03-31T22:03:59.156Z,12.64
2023-03-31T22:07:01.393Z,12.74
2023-03-31T22:10:04.924Z,12.79
2023-03-31T22:13:07.302Z,12.75
2023-03-31T22:16:21.628Z,12.73
2023-03-31T22:19:24.037Z,12.45
2023-03-31T22:22:26.613Z,12.21
2023-03-31T22:25:28.863Z,12.37
2023-03-31T22:28:31.166Z,12.52
2023-03-31T22:31:33.541Z,12.49
2023-03-31T22:34:36.201Z,12.62
2023-03-31T22:37:38.843Z,12.57
2023-03-31T22:40:41.159Z,12.55
2023-03-31T22:43:45.890Z,12.55
2023-03-31T22:46:50.034Z,12.55
2023-03-31T22:49:52.417Z,12.65
2023-03-31T22:52:54.743Z,12.47
2023-03-31T22:55:57.041Z,12.46
2023-03-31T22:58:59.416Z,12.36
2023-03-31T23:02:01.860Z,12.34
2023-03-31T23:05:04.310Z,12.22
2023-03-31T23:08:06.558Z,12.21
2023-03-31T23:11:11.952Z,12.17
2023-03-31T23:14:14.188Z,12.23
2023-03-31T23:17:16.540Z,12.34
2023-03-31T23:20:18.816Z,12.22
2023-03-31T23:23:21.255Z,12.05
2023-03-31T23:26:25.523Z,11.99
2023-03-31T23:29:28.122Z,12.09
2023-03-31T23:32:30.518Z,11.94
2023-03-31T23:35:33.116Z,11.99
2023-03-31T23:38:36.023Z,11.96
2023-03-31T23:41:38.304Z,11.81
2023-03-31T23:44:40.589Z,11.81
2023-03-31T23:47:42.958Z,11.74
2023-03-31T23:50:45.662Z,11.78
2023-03-31T23:53:47.980Z,11.64
2023-03-31T23:56:50.359Z,11.72
2023-03-31T23:59:52.765Z,11.73
